Home > Products > Valid Products > MTR

000
SAUS46 KPQR 302153
MTRREO
METAR KREO 302152Z AUTO 22013G26KT 26/M01 A2990 RMK AO1 PK WND
20026/2150 SLP085 T02611006





000
SAUS46 KPQR 302053
MTRREO
METAR KREO 302052Z AUTO 25009G16KT 27/M01 A2992 RMK AO1 SLP087
T02721006 56020





000
SAUS46 KPQR 301953
MTRREO
METAR KREO 301952Z AUTO 33009KT 26/01 A2994 RMK AO1 SLP093 T02610006





000
SAUS46 KPQR 301853
MTRREO
METAR KREO 301852Z AUTO VRB03KT 24/01 A2996 RMK AO1 SLP102 T02390011





000
SAUS46 KPQR 301753
MTRREO
METAR KREO 301752Z AUTO VRB03KT 23/02 A2998 RMK AO1 SLP119 T02330022
10239 20167 58001





000
SAUS46 KPQR 301653
MTRREO
METAR KREO 301652Z AUTO VRB04KT 22/03 A3000 RMK AO1 SLP117 T02170028





000
SAUS46 KPQR 301553
MTRREO
METAR KREO 301552Z AUTO VRB03KT 19/02 A2999 RMK AO1 SLP115 T01940017





000
SAUS46 KPQR 301453
MTRREO
METAR KREO 301452Z AUTO 07005KT 18/05 A2999 RMK AO1 SLP115 T01780050
53008





000
SAUS46 KPQR 301353
MTRREO
METAR KREO 301352Z AUTO 07006KT 17/05 A2997 RMK AO1 SLP110 T01670050





000
SAUS46 KPQR 301253
MTRREO
METAR KREO 301252Z AUTO 08007KT 17/05 A2996 RMK AO1 SLP103 T01720050





000
SAUS46 KPQR 301153
MTRREO
METAR KREO 301152Z AUTO 06007KT 18/04 A2996 RMK AO1 SLP100 T01830044
10228 20178 53008





000
SAUS46 KPQR 301053
MTRREO
METAR KREO 301052Z AUTO 10004KT 19/03 A2995 RMK AO1 SLP094 T01890033





000
SAUS46 KPQR 300958 COR
MTRREO
METAR KREO 300952Z AUTO 12003KT 19/02 A2993 RMK AO1 SLP089 T01890022





000
SAUS46 KPQR 300957 COR
MTRREO
METAR KREO 300952Z AUTO 12003KT 19/02 A2993 RMK AO1 SLP089 T01890022





000
SAUS46 KPQR 300955 COR
MTRREO
METAR KREO 300952Z AUTO 12003KT 19/02 A2993 RMK AO1 SLP089 T01890022





000
SAUS46 KPQR 300954 COR
MTRREO
METAR KREO 300952Z AUTO 12003KT 19/02 A2993 RMK AO1 SLP089 T01890022





000
SAUS46 KPQR 300953
MTRREO
METAR KREO 300952Z AUTO 12003KT 19/02 A2993 RMK AO1 SLP089 T01890022





000
SAUS46 KPQR 300853
MTRREO
METAR KREO 300852Z AUTO 00000KT 21/03 A2994 RMK AO1 SLP087 T02110028
51011





000
SAUS46 KPQR 300753
MTRREO
METAR KREO 300752Z AUTO 30007KT 23/03 A2993 RMK AO1 SLP087 T02280028
403280122





000
SAUS46 KPQR 300653
MTRREO
METAR KREO 300652Z AUTO 30004KT 22/03 A2992 RMK AO1 SLP085 T02220033





000
SAUS46 KPQR 300553
MTRREO
METAR KREO 300552Z AUTO 27007KT 18/01 A2990 RMK AO1 SLP085 T01780006
10322 20178 53008





000
SAUS46 KPQR 300453
MTRREO
METAR KREO 300452Z AUTO 07006KT 24/02 A2988 RMK AO1 SLP074 T02390022





000
SAUS46 KPQR 300353
MTRREO
METAR KREO 300352Z AUTO 35004KT 26/03 A2989 RMK AO1 SLP076 T02560028





000
SAUS46 KPQR 300253
MTRREO
METAR KREO 300252Z AUTO 36008KT 27/03 A2987 RMK AO1 SLP074 T02720028
55000





000
SAUS46 KPQR 300153
MTRREO
METAR KREO 300152Z AUTO 36011KT 29/03 A2986 RMK AO1 WSHFT 0115
SLP072 T02890028





000
SAUS46 KPQR 300133
MTRREO
SPECI KREO 300132Z AUTO 01012KT 29/03 A2985 RMK AO1 WSHFT 0115
T02940028





000
SAUS46 KPQR 300053
MTRREO
METAR KREO 300052Z AUTO 29009KT 32/01 A2986 RMK AO1 SLP071 T03170011





000
SAUS46 KPQR 292353
MTRREO
METAR KREO 292352Z AUTO VRB05KT 32/02 A2987 RMK AO1 SLP076 T03170017
10328 20256 56023





000
SAUS46 KPQR 292253
MTRREO
METAR KREO 292252Z AUTO VRB03KT 31/03 A2989 RMK AO1 SLP079 T03110028





000
SAUS46 KPQR 292153
MTRREO
METAR KREO 292152Z AUTO 00000KT 32/03 A2991 RMK AO1 SLP088 T03170033





000
SAUS46 KPQR 292053
MTRREO
METAR KREO 292052Z AUTO 32/03 A2995 RMK AO1 SLP098 T03170033 58026





000
SAUS46 KPQR 291953
MTRREO
METAR KREO 291952Z AUTO 32003KT 31/03 A2998 RMK AO1 SLP107 T03060033





000
SAUS46 KPQR 291853
MTRREO
METAR KREO 291852Z AUTO 00000KT 28/04 A3001 RMK AO1 SLP119 T02780039





000
SAUS46 KPQR 291755
MTRREO
METAR KREO 291752Z AUTO VRB03KT 26/04 A3003 RMK AO1 SLP130 T02610039
10272 20122 57010





000
SAUS46 KPQR 291653
MTRREO
METAR KREO 291652Z AUTO VRB04KT 24/04 A3005 RMK AO1 SLP135 T02390039





000
SAUS46 KPQR 291553
MTRREO
METAR KREO 291552Z AUTO 00000KT 23/04 A3005 RMK AO1 SLP135 T02280039





000
SAUS46 KPQR 291453
MTRREO
METAR KREO 291452Z AUTO 00000KT 19/03 A3007 RMK AO1 SLP140 T01940033
53005





000
SAUS46 KPQR 291353
MTRREO
METAR KREO 291352Z AUTO 15006KT 14/01 A3006 RMK AO1 SLP141 T01390011





000
SAUS46 KPQR 291253
MTRREO
METAR KREO 291252Z AUTO 14005KT 13/01 A3005 RMK AO1 SLP136 T01280006





000
SAUS46 KPQR 291153
MTRREO
METAR KREO 291152Z AUTO 00000KT 13/00 A3005 RMK AO1 SLP137 T01280000
10228 20128 53004





000
SAUS46 KPQR 291053
MTRREO
METAR KREO 291052Z AUTO 04007KT 16/01 A3005 RMK AO1 SLP132 T01560006





000
SAUS46 KPQR 290953
MTRREO
METAR KREO 290952Z AUTO 13003KT 15/M01 A3004 RMK AO1 SLP130
T01501006





000
SAUS46 KPQR 290853
MTRREO
METAR KREO 290852Z AUTO 13005KT 16/M01 A3004 RMK AO1 SLP129
T01611006 50001





000
SAUS46 KPQR 290753
MTRREO
METAR KREO 290752Z AUTO 19005KT 18/01 A3005 RMK AO1 SLP129 T01780006
403390128





000
SAUS46 KPQR 290653
MTRREO
METAR KREO 290652Z AUTO 14008KT 19/01 A3004 RMK AO1 SLP125 T01940006





000
SAUS46 KPQR 290553
MTRREO
METAR KREO 290552Z AUTO 23003KT 20/M01 A3004 RMK AO1 SLP128
T02001006 10328 20200 51006





000
SAUS46 KPQR 290453
MTRREO
METAR KREO 290452Z AUTO 10003KT 23/01 A3003 RMK AO1 SLP124 T02280006





000
SAUS46 KPQR 290353
MTRREO
METAR KREO 290352Z AUTO 24003KT 25/02 A3003 RMK AO1 SLP125 T02500017





000
SAUS46 KPQR 290253
MTRREO
METAR KREO 290252Z AUTO 28004KT 28/02 A3002 RMK AO1 SLP119 T02780022
55001





000
SAUS46 KPQR 290153
MTRREO
METAR KREO 290152Z AUTO 24007KT 31/03 A3001 RMK AO1 SLP122 T03060028





000
SAUS46 KPQR 290053
MTRREO
METAR KREO 290052Z AUTO 28006KT 32/03 A3001 RMK AO1 SLP123 T03220033





000
SAUS46 KPQR 282353
MTRREO
METAR KREO 282352Z AUTO 25011KT 33/03 A3002 RMK AO1 SLP124 T03280033
10339 20289 56016





000
SAUS46 KPQR 282253
MTRREO
METAR KREO 282252Z AUTO 24009G15KT 33/02 A3004 RMK AO1 SLP126
T03330022





000
SAUS46 KPQR 282153
MTRREO
METAR KREO 282152Z AUTO 00000KT 32/02 A3005 RMK AO1 SLP130 T03220017





000
SAUS46 KPQR 282053
MTRREO
METAR KREO 282052Z AUTO 27007G20KT 240V310 33/03 A3008 RMK AO1
SLP136 T03280028 58019





000
SAUS46 KPQR 281953
MTRREO
METAR KREO 281952Z AUTO VRB05KT 33/03 A3010 RMK AO1 SLP145 T03280033





000
SAUS46 KPQR 281853
MTRREO
METAR KREO 281852Z AUTO VRB05KT 31/04 A3012 RMK AO1 SLP153 T03110039





000
SAUS46 KPQR 281753
MTRREO
METAR KREO 281752Z AUTO VRB03KT 29/04 A3014 RMK AO1 SLP160 T02890044
10294 20133 58005





000
SAUS46 KPQR 281658 COR
MTRREO
METAR KREO 281652Z AUTO 28/03 A3015 RMK AO1 SLP163 T02830028





000
SAUS46 KPQR 281553
MTRREO
METAR KREO 281552Z AUTO 21004KT 24/01 A3015 RMK AO1 SLP166 T02440011





000
SAUS46 KPQR 281453
MTRREO
METAR KREO 281452Z AUTO 16003KT 22/01 A3016 RMK AO1 SLP171 T02170006
51008





000
SAUS46 KPQR 281353
MTRREO
METAR KREO 281352Z AUTO 16006KT 15/M01 A3016 RMK AO1 SLP173
T01501006





000
SAUS46 KPQR 281253
MTRREO
METAR KREO 281252Z AUTO 00000KT 14/M01 A3015 RMK AO1 SLP169
T01441011





000
SAUS46 KPQR 281153
MTRREO
METAR KREO 281152Z AUTO 15003KT 15/M02 A3013 RMK AO1 SLP161
T01501017 10228 20128 53009





000
SAUS46 KPQR 281053
MTRREO
METAR KREO 281052Z AUTO 30010KT 17/M01 A3012 RMK AO1 SLP157
T01671006





000
SAUS46 KPQR 280953
MTRREO
METAR KREO 280952Z AUTO 15009KT 18/M01 A3011 RMK AO1 SLP153
T01831006





000
SAUS46 KPQR 280853
MTRREO
METAR KREO 280852Z AUTO 15010KT 20/M01 A3010 RMK AO1 SLP147
T02001006 50000





000
SAUS46 KPQR 280753
MTRREO
METAR KREO 280752Z AUTO 23004KT 19/M01 A3010 RMK AO1 SLP149
T01891011 403220083





000
SAUS46 KPQR 280653
MTRREO
METAR KREO 280652Z AUTO 13011KT 22/M01 A3010 RMK AO1 SLP146
T02221006





000
SAUS46 KPQR 280553
MTRREO
METAR KREO 280552Z AUTO 14009KT 23/M01 A3010 RMK AO1 SLP149
T02281011 10322 20222 50003





000
SAUS46 KPQR 280453
MTRREO
METAR KREO 280452Z AUTO 11006KT 23/M01 A3011 RMK AO1 SLP154
T02331011





000
SAUS46 KPQR 280353
MTRREO
METAR KREO 280352Z AUTO 11009KT 26/M01 A3010 RMK AO1 SLP153
T02561006





000
SAUS46 KPQR 280253
MTRREO
METAR KREO 280252Z AUTO 06007KT 26/M01 A3009 RMK AO1 SLP152
T02611011 55002





000
SAUS46 KPQR 280153
MTRREO
METAR KREO 280152Z AUTO 10007KT 31/M01 A3008 RMK AO1 SLP152
T03061006





000
SAUS46 KPQR 280053
MTRREO
METAR KREO 280052Z AUTO 09004KT 32/00 A3009 RMK AO1 SLP154 T03170000





000
SAUS46 KPQR 272353
MTRREO
METAR KREO 272352Z AUTO 36008KT 32/M01 A3010 RMK AO1 SLP156
T03221006 10322 20261 56015





000
SAUS46 KPQR 272253
MTRREO
METAR KREO 272252Z AUTO 25005KT 31/00 A3011 RMK AO1 SLP161 T03060000





    US Dept of Commerce
    National Oceanic and Atmospheric Administration
    National Weather Service
    1325 East West Highway
    Silver Spring, MD 20910
    Page Author: NWS Internet Services Team
Disclaimer
Information Quality
Credits
Glossary
Privacy Policy
Freedom of Information Act (FOIA)
About Us
Career Opportunities